sensor_id;sensor_type;location;lat;lon;timestamp;pressure;altitude;pressure_sealevel;temperature;humidity
21588;BME280;10956;48.878;13.316;2024-03-29T00:01:49;93060.91;;;3.84;100.00
21588;BME280;10956;48.878;13.316;2024-03-29T00:04:14;93056.19;;;3.76;100.00
21588;BME280;10956;48.878;13.316;2024-03-29T00:06:40;93065.25;;;3.68;100.00
21588;BME280;10956;48.878;13.316;2024-03-29T00:09:05;93063.88;;;3.61;100.00
21588;BME280;10956;48.878;13.316;2024-03-29T00:11:31;93063.88;;;3.61;100.00
21588;BME280;10956;48.878;13.316;2024-03-29T00:13:57;93074.81;;;3.58;100.00
21588;BME280;10956;48.878;13.316;2024-03-29T00:16:23;93075.34;;;3.60;100.00
21588;BME280;10956;48.878;13.316;2024-03-29T00:18:54;93073.31;;;3.67;100.00
21588;BME280;10956;48.878;13.316;2024-03-29T00:21:19;93077.00;;;3.71;100.00
21588;BME280;10956;48.878;13.316;2024-03-29T00:23:44;93079.59;;;3.71;100.00
21588;BME280;10956;48.878;13.316;2024-03-29T00:26:11;93088.13;;;3.61;100.00
21588;BME280;10956;48.878;13.316;2024-03-29T00:28:38;93094.81;;;3.52;100.00
21588;BME280;10956;48.878;13.316;2024-03-29T00:31:04;93087.75;;;3.47;100.00
21588;BME280;10956;48.878;13.316;2024-03-29T00:33:29;93082.50;;;3.42;100.00
21588;BME280;10956;48.878;13.316;2024-03-29T00:35:56;93077.75;;;3.34;100.00
21588;BME280;10956;48.878;13.316;2024-03-29T00:38:21;93080.31;;;3.29;100.00
21588;BME280;10956;48.878;13.316;2024-03-29T00:40:47;93065.19;;;3.26;100.00
21588;BME280;10956;48.878;13.316;2024-03-29T00:43:12;93062.53;;;3.21;100.00
21588;BME280;10956;48.878;13.316;2024-03-29T00:45:38;93067.25;;;3.24;100.00
21588;BME280;10956;48.878;13.316;2024-03-29T00:48:04;93063.69;;;3.35;100.00
21588;BME280;10956;48.878;13.316;2024-03-29T00:50:29;93065.06;;;3.43;100.00
21588;BME280;10956;48.878;13.316;2024-03-29T00:52:55;93063.69;;;3.35;100.00
21588;BME280;10956;48.878;13.316;2024-03-29T00:55:21;93063.03;;;3.18;100.00
21588;BME280;10956;48.878;13.316;2024-03-29T00:57:46;93066.59;;;3.07;100.00
21588;BME280;10956;48.878;13.316;2024-03-29T01:00:12;93070.72;;;3.03;100.00
21588;BME280;10956;48.878;13.316;2024-03-29T01:02:38;93052.72;;;3.01;100.00
21588;BME280;10956;48.878;13.316;2024-03-29T01:05:05;93058.13;;;2.95;100.00
21588;BME280;10956;48.878;13.316;2024-03-29T01:07:31;93069.03;;;2.91;100.00
21588;BME280;10956;48.878;13.316;2024-03-29T01:09:56;93072.66;;;2.90;100.00
21588;BME280;10956;48.878;13.316;2024-03-29T01:12:21;93066.44;;;2.91;100.00
21588;BME280;10956;48.878;13.316;2024-03-29T01:14:48;93058.88;;;2.90;100.00
21588;BME280;10956;48.878;13.316;2024-03-29T01:17:14;93054.72;;;2.89;100.00
21588;BME280;10956;48.878;13.316;2024-03-29T01:19:39;93055.00;;;2.92;100.00
21588;BME280;10956;48.878;13.316;2024-03-29T01:22:05;93055.97;;;2.86;100.00
21588;BME280;10956;48.878;13.316;2024-03-29T01:24:30;93047.63;;;2.84;100.00
21588;BME280;10956;48.878;13.316;2024-03-29T01:26:56;93057.34;;;2.94;100.00
21588;BME280;10956;48.878;13.316;2024-03-29T01:29:22;93044.09;;;2.96;100.00
21588;BME280;10956;48.878;13.316;2024-03-29T01:31:47;93047.72;;;2.95;100.00
21588;BME280;10956;48.878;13.316;2024-03-29T01:34:12;93040.66;;;2.90;100.00
21588;BME280;10956;48.878;13.316;2024-03-29T01:36:38;93024.28;;;2.89;100.00
21588;BME280;10956;48.878;13.316;2024-03-29T01:39:04;93020.28;;;2.82;100.00
21588;BME280;10956;48.878;13.316;2024-03-29T01:41:29;93017.41;;;2.78;100.00
21588;BME280;10956;48.878;13.316;2024-03-29T01:43:55;93007.50;;;2.75;100.00
21588;BME280;10956;48.878;13.316;2024-03-29T01:46:23;93004.63;;;2.77;100.00
21588;BME280;10956;48.878;13.316;2024-03-29T01:48:51;93010.88;;;2.76;100.00
21588;BME280;10956;48.878;13.316;2024-03-29T01:51:19;93013.78;;;2.79;100.00
21588;BME280;10956;48.878;13.316;2024-03-29T01:53:46;93002.88;;;2.82;100.00
21588;BME280;10956;48.878;13.316;2024-03-29T01:56:13;92994.31;;;2.87;100.00
21588;BME280;10956;48.878;13.316;2024-03-29T01:58:39;92983.25;;;3.02;100.00
21588;BME280;10956;48.878;13.316;2024-03-29T02:01:07;92980.25;;;3.15;100.00
21588;BME280;10956;48.878;13.316;2024-03-29T02:03:33;92974.56;;;3.23;100.00
21588;BME280;10956;48.878;13.316;2024-03-29T02:05:59;93000.63;;;3.28;100.00
21588;BME280;10956;48.878;13.316;2024-03-29T02:08:27;93003.00;;;3.30;100.00
21588;BME280;10956;48.878;13.316;2024-03-29T02:10:53;93018.88;;;3.28;100.00
21588;BME280;10956;48.878;13.316;2024-03-29T02:13:19;93021.38;;;3.18;100.00
21588;BME280;10956;48.878;13.316;2024-03-29T02:15:44;93032.78;;;3.12;100.00
21588;BME280;10956;48.878;13.316;2024-03-29T02:18:10;93039.56;;;3.13;100.00
21588;BME280;10956;48.878;13.316;2024-03-29T02:20:35;93036.44;;;3.11;100.00
21588;BME280;10956;48.878;13.316;2024-03-29T02:23:11;93041.44;;;3.17;100.00
21588;BME280;10956;48.878;13.316;2024-03-29T02:25:37;93038.13;;;3.27;100.00
21588;BME280;10956;48.878;13.316;2024-03-29T02:28:03;93034.53;;;3.33;100.00
21588;BME280;10956;48.878;13.316;2024-03-29T02:30:29;93016.34;;;3.38;100.00
21588;BME280;10956;48.878;13.316;2024-03-29T02:32:59;93011.13;;;3.38;100.00
21588;BME280;10956;48.878;13.316;2024-03-29T02:35:24;93025.72;;;3.39;100.00
21588;BME280;10956;48.878;13.316;2024-03-29T02:37:50;93025.69;;;3.34;100.00
21588;BME280;10956;48.878;13.316;2024-03-29T02:40:16;93026.75;;;3.38;100.00
21588;BME280;10956;48.878;13.316;2024-03-29T02:42:41;93037.66;;;3.35;100.00
21588;BME280;10956;48.878;13.316;2024-03-29T02:45:07;93024.09;;;3.33;100.00
21588;BME280;10956;48.878;13.316;2024-03-29T02:47:33;93030.09;;;3.34;100.00
21588;BME280;10956;48.878;13.316;2024-03-29T02:49:58;93031.88;;;3.28;100.00
21588;BME280;10956;48.878;13.316;2024-03-29T02:52:24;93031.31;;;3.21;100.00
21588;BME280;10956;48.878;13.316;2024-03-29T02:54:49;93034.41;;;3.18;100.00
21588;BME280;10956;48.878;13.316;2024-03-29T02:57:15;93034.16;;;3.19;100.00
21588;BME280;10956;48.878;13.316;2024-03-29T02:59:41;93030.28;;;3.22;100.00
21588;BME280;10956;48.878;13.316;2024-03-29T03:02:07;93034.16;;;3.19;100.00
21588;BME280;10956;48.878;13.316;2024-03-29T03:04:32;93033.38;;;3.19;100.00
21588;BME280;10956;48.878;13.316;2024-03-29T03:06:58;93038.50;;;3.09;100.00
21588;BME280;10956;48.878;13.316;2024-03-29T03:09:44;93043.13;;;3.02;100.00
21588;BME280;10956;48.878;13.316;2024-03-29T03:12:31;93035.31;;;3.02;100.00
21588;BME280;10956;48.878;13.316;2024-03-29T03:14:57;93029.28;;;2.96;100.00
21588;BME280;10956;48.878;13.316;2024-03-29T03:17:23;93031.63;;;2.98;100.00
21588;BME280;10956;48.878;13.316;2024-03-29T03:19:51;93033.19;;;2.99;100.00
21588;BME280;10956;48.878;13.316;2024-03-29T03:22:16;93018.13;;;3.01;100.00
21588;BME280;10956;48.878;13.316;2024-03-29T03:24:42;93016.31;;;3.01;100.00
21588;BME280;10956;48.878;13.316;2024-03-29T03:27:07;93015.91;;;3.14;100.00
21588;BME280;10956;48.878;13.316;2024-03-29T03:29:33;93009.97;;;3.24;100.00
21588;BME280;10956;48.878;13.316;2024-03-29T03:31:58;93009.97;;;3.24;100.00
21588;BME280;10956;48.878;13.316;2024-03-29T03:34:24;93026.19;;;3.31;100.00
21588;BME280;10956;48.878;13.316;2024-03-29T03:36:49;93026.19;;;3.31;100.00
21588;BME280;10956;48.878;13.316;2024-03-29T03:39:15;93018.91;;;3.33;100.00
21588;BME280;10956;48.878;13.316;2024-03-29T03:41:40;93010.63;;;3.41;100.00
21588;BME280;10956;48.878;13.316;2024-03-29T03:44:06;93004.91;;;3.44;100.00
21588;BME280;10956;48.878;13.316;2024-03-29T03:46:31;93013.22;;;3.41;100.00
21588;BME280;10956;48.878;13.316;2024-03-29T03:48:57;93000.50;;;3.45;100.00
21588;BME280;10956;48.878;13.316;2024-03-29T03:51:22;92996.28;;;3.39;100.00
21588;BME280;10956;48.878;13.316;2024-03-29T03:53:48;93002.28;;;3.39;100.00
21588;BME280;10956;48.878;13.316;2024-03-29T03:56:13;93003.31;;;3.38;100.00
21588;BME280;10956;48.878;13.316;2024-03-29T03:58:39;93006.41;;;3.35;100.00
21588;BME280;10956;48.878;13.316;2024-03-29T04:01:05;93001.25;;;3.40;100.00
21588;BME280;10956;48.878;13.316;2024-03-29T04:03:31;92997.06;;;3.39;100.00
21588;BME280;10956;48.878;13.316;2024-03-29T04:05:57;93004.34;;;3.37;100.00
21588;BME280;10956;48.878;13.316;2024-03-29T04:08:22;92999.94;;;3.38;100.00
21588;BME280;10956;48.878;13.316;2024-03-29T04:10:48;92985.63;;;3.40;100.00
21588;BME280;10956;48.878;13.316;2024-03-29T04:13:14;92968.97;;;3.41;100.00
21588;BME280;10956;48.878;13.316;2024-03-29T04:15:39;92952.03;;;3.44;100.00
21588;BME280;10956;48.878;13.316;2024-03-29T04:18:06;92947.13;;;3.47;100.00
21588;BME280;10956;48.878;13.316;2024-03-29T04:20:32;92942.69;;;3.48;100.00
21588;BME280;10956;48.878;13.316;2024-03-29T04:22:57;92947.91;;;3.48;100.00
21588;BME280;10956;48.878;13.316;2024-03-29T04:25:23;92952.84;;;3.44;100.00
21588;BME280;10956;48.878;13.316;2024-03-29T04:27:48;92960.41;;;3.46;100.00
21588;BME280;10956;48.878;13.316;2024-03-29T04:30:14;92963.25;;;3.44;100.00
21588;BME280;10956;48.878;13.316;2024-03-29T04:32:39;92968.72;;;3.43;100.00
21588;BME280;10956;48.878;13.316;2024-03-29T04:35:05;92966.88;;;3.43;100.00
21588;BME280;10956;48.878;13.316;2024-03-29T04:37:31;92968.97;;;3.41;100.00
21588;BME280;10956;48.878;13.316;2024-03-29T04:39:56;92972.09;;;3.43;100.00
21588;BME280;10956;48.878;13.316;2024-03-29T04:42:22;92983.28;;;3.44;100.00
21588;BME280;10956;48.878;13.316;2024-03-29T04:44:47;92974.69;;;3.43;100.00
21588;BME280;10956;48.878;13.316;2024-03-29T04:47:13;92980.50;;;3.55;100.00
21588;BME280;10956;48.878;13.316;2024-03-29T04:49:38;92989.84;;;3.51;100.00
21588;BME280;10956;48.878;13.316;2024-03-29T04:52:05;92989.84;;;3.51;100.00
21588;BME280;10956;48.878;13.316;2024-03-29T04:54:31;92999.78;;;3.54;100.00
21588;BME280;10956;48.878;13.316;2024-03-29T04:56:57;92994.88;;;3.63;100.00
21588;BME280;10956;48.878;13.316;2024-03-29T04:59:22;92979.00;;;3.65;100.00
21588;BME280;10956;48.878;13.316;2024-03-29T05:01:48;92967.06;;;3.74;100.00
21588;BME280;10956;48.878;13.316;2024-03-29T05:04:19;92966.56;;;3.77;100.00
21588;BME280;10956;48.878;13.316;2024-03-29T05:06:54;92960.81;;;3.75;100.00
21588;BME280;10956;48.878;13.316;2024-03-29T05:09:20;92958.47;;;3.78;100.00
21588;BME280;10956;48.878;13.316;2024-03-29T05:11:46;92956.19;;;3.87;100.00
21588;BME280;10956;48.878;13.316;2024-03-29T05:14:16;92955.66;;;3.90;100.00
21588;BME280;10956;48.878;13.316;2024-03-29T05:16:45;92960.13;;;4.00;100.00
21588;BME280;10956;48.878;13.316;2024-03-29T05:19:12;92963.78;;;3.99;100.00
21588;BME280;10956;48.878;13.316;2024-03-29T05:21:38;92963.00;;;3.98;100.00
21588;BME280;10956;48.878;13.316;2024-03-29T05:24:03;92966.44;;;4.09;100.00
21588;BME280;10956;48.878;13.316;2024-03-29T05:26:29;92962.53;;;4.16;100.00
21588;BME280;10956;48.878;13.316;2024-03-29T05:28:55;92974.06;;;4.26;100.00
21588;BME280;10956;48.878;13.316;2024-03-29T05:31:23;92978.75;;;4.29;100.00
21588;BME280;10956;48.878;13.316;2024-03-29T05:33:50;92966.78;;;4.33;100.00
21588;BME280;10956;48.878;13.316;2024-03-29T05:36:16;92968.88;;;4.36;100.00
21588;BME280;10956;48.878;13.316;2024-03-29T05:38:41;92973.59;;;4.44;100.00
21588;BME280;10956;48.878;13.316;2024-03-29T05:41:07;92966.56;;;4.49;100.00
21588;BME280;10956;48.878;13.316;2024-03-29T05:43:33;92971.00;;;4.54;100.00
21588;BME280;10956;48.878;13.316;2024-03-29T05:45:58;92971.53;;;4.61;100.00
21588;BME280;10956;48.878;13.316;2024-03-29T05:48:26;92963.44;;;4.68;100.00
21588;BME280;10956;48.878;13.316;2024-03-29T05:50:52;92972.06;;;4.73;100.00
21588;BME280;10956;48.878;13.316;2024-03-29T05:53:17;92960.06;;;4.77;100.00
21588;BME280;10956;48.878;13.316;2024-03-29T05:55:43;92959.28;;;4.87;100.00
21588;BME280;10956;48.878;13.316;2024-03-29T05:58:08;92954.88;;;4.88;100.00
21588;BME280;10956;48.878;13.316;2024-03-29T06:00:34;92956.69;;;4.92;100.00
21588;BME280;10956;48.878;13.316;2024-03-29T06:03:00;92950.16;;;4.95;100.00
21588;BME280;10956;48.878;13.316;2024-03-29T06:05:28;92947.28;;;5.01;100.00
21588;BME280;10956;48.878;13.316;2024-03-29T06:07:53;92956.69;;;5.02;99.63
21588;BME280;10956;48.878;13.316;2024-03-29T06:10:19;92948.59;;;5.09;98.76
21588;BME280;10956;48.878;13.316;2024-03-29T06:12:45;92953.03;;;5.13;97.55
21588;BME280;10956;48.878;13.316;2024-03-29T06:15:10;92962.16;;;5.21;98.13
21588;BME280;10956;48.878;13.316;2024-03-29T06:17:54;92961.13;;;5.22;96.30
21588;BME280;10956;48.878;13.316;2024-03-29T06:20:19;92961.13;;;5.27;95.39
21588;BME280;10956;48.878;13.316;2024-03-29T06:22:45;92965.03;;;5.35;96.01
21588;BME280;10956;48.878;13.316;2024-03-29T06:25:10;92969.22;;;5.41;95.63
21588;BME280;10956;48.878;13.316;2024-03-29T06:27:36;92968.16;;;5.47;94.74
21588;BME280;10956;48.878;13.316;2024-03-29T06:30:04;92964.22;;;5.55;93.34
21588;BME280;10956;48.878;13.316;2024-03-29T06:32:30;92964.72;;;5.62;92.66
21588;BME280;10956;48.878;13.316;2024-03-29T06:34:57;92950.09;;;5.66;91.81
21588;BME280;10956;48.878;13.316;2024-03-29T06:37:22;92946.41;;;5.72;90.80
21588;BME280;10956;48.878;13.316;2024-03-29T06:39:50;92937.50;;;5.78;90.44
21588;BME280;10956;48.878;13.316;2024-03-29T06:42:16;92930.19;;;5.90;92.04
21588;BME280;10956;48.878;13.316;2024-03-29T06:44:41;92918.66;;;5.96;92.28
21588;BME280;10956;48.878;13.316;2024-03-29T06:47:08;92918.38;;;6.03;91.20
21588;BME280;10956;48.878;13.316;2024-03-29T06:49:34;92926.66;;;6.20;91.30
21588;BME280;10956;48.878;13.316;2024-03-29T06:51:59;92940.38;;;6.46;90.17
21588;BME280;10956;48.878;13.316;2024-03-29T06:54:30;92930.03;;;6.70;86.74
21588;BME280;10956;48.878;13.316;2024-03-29T06:56:57;92925.63;;;6.99;86.45
21588;BME280;10956;48.878;13.316;2024-03-29T06:59:23;92925.94;;;7.27;85.32
21588;BME280;10956;48.878;13.316;2024-03-29T07:01:49;92922.84;;;7.49;84.27
21588;BME280;10956;48.878;13.316;2024-03-29T07:04:19;92931.69;;;7.58;82.88
21588;BME280;10956;48.878;13.316;2024-03-29T07:06:45;92926.94;;;7.60;80.64
21588;BME280;10956;48.878;13.316;2024-03-29T07:09:14;92919.75;;;7.70;81.24
21588;BME280;10956;48.878;13.316;2024-03-29T07:11:40;92900.00;;;7.78;81.90
21588;BME280;10956;48.878;13.316;2024-03-29T07:14:06;92903.00;;;7.90;81.61
21588;BME280;10956;48.878;13.316;2024-03-29T07:16:31;92888.22;;;7.99;80.62
21588;BME280;10956;48.878;13.316;2024-03-29T07:18:57;92880.22;;;8.09;79.25
21588;BME280;10956;48.878;13.316;2024-03-29T07:21:24;92881.66;;;8.21;78.19
21588;BME280;10956;48.878;13.316;2024-03-29T07:23:49;92888.34;;;8.32;77.93
21588;BME280;10956;48.878;13.316;2024-03-29T07:26:15;92895.81;;;8.44;77.12
21588;BME280;10956;48.878;13.316;2024-03-29T07:28:40;92895.97;;;8.52;75.98
21588;BME280;10956;48.878;13.316;2024-03-29T07:31:06;92908.38;;;8.65;76.18
21588;BME280;10956;48.878;13.316;2024-03-29T07:33:36;92910.56;;;8.77;76.19
21588;BME280;10956;48.878;13.316;2024-03-29T07:36:01;92906.72;;;8.88;74.95
21588;BME280;10956;48.878;13.316;2024-03-29T07:38:29;92910.81;;;9.13;74.95
21588;BME280;10956;48.878;13.316;2024-03-29T07:40:55;92912.13;;;9.29;74.01
21588;BME280;10956;48.878;13.316;2024-03-29T07:43:22;92909.59;;;9.38;74.01
21588;BME280;10956;48.878;13.316;2024-03-29T07:45:48;92903.97;;;9.45;73.85
21588;BME280;10956;48.878;13.316;2024-03-29T07:48:17;92911.78;;;9.50;73.80
21588;BME280;10956;48.878;13.316;2024-03-29T07:50:44;92913.94;;;9.61;73.37
21588;BME280;10956;48.878;13.316;2024-03-29T07:53:10;92914.13;;;9.65;72.67
21588;BME280;10956;48.878;13.316;2024-03-29T07:55:37;92919.78;;;9.72;73.57
21588;BME280;10956;48.878;13.316;2024-03-29T07:58:04;92920.69;;;9.81;73.11
21588;BME280;10956;48.878;13.316;2024-03-29T08:00:33;92916.88;;;9.87;72.11
21588;BME280;10956;48.878;13.316;2024-03-29T08:03:00;92922.53;;;9.94;69.81
21588;BME280;10956;48.878;13.316;2024-03-29T08:05:26;92926.53;;;10.06;69.52
21588;BME280;10956;48.878;13.316;2024-03-29T08:07:52;92919.94;;;10.22;68.83
21588;BME280;10956;48.878;13.316;2024-03-29T08:10:18;92926.25;;;10.34;67.56
21588;BME280;10956;48.878;13.316;2024-03-29T08:12:44;92926.25;;;10.48;67.24
21588;BME280;10956;48.878;13.316;2024-03-29T08:15:09;92910.56;;;10.79;65.49
21588;BME280;10956;48.878;13.316;2024-03-29T08:17:36;92916.88;;;11.14;63.14
21588;BME280;10956;48.878;13.316;2024-03-29T08:20:02;92913.34;;;11.41;62.29
21588;BME280;10956;48.878;13.316;2024-03-29T08:22:28;92928.69;;;11.70;59.97
21588;BME280;10956;48.878;13.316;2024-03-29T08:24:54;92920.97;;;12.05;58.16
21588;BME280;10956;48.878;13.316;2024-03-29T08:27:20;92916.75;;;12.43;56.50
21588;BME280;10956;48.878;13.316;2024-03-29T08:29:45;92906.69;;;12.80;55.59
21588;BME280;10956;48.878;13.316;2024-03-29T08:32:11;92898.13;;;13.09;55.00
21588;BME280;10956;48.878;13.316;2024-03-29T08:34:37;92888.66;;;13.25;54.30
21588;BME280;10956;48.878;13.316;2024-03-29T08:37:03;92893.19;;;13.24;54.44
21588;BME280;10956;48.878;13.316;2024-03-29T08:39:30;92906.88;;;13.18;52.62
21588;BME280;10956;48.878;13.316;2024-03-29T08:41:55;92902.97;;;13.33;52.64
21588;BME280;10956;48.878;13.316;2024-03-29T08:44:21;92901.88;;;13.42;51.92
21588;BME280;10956;48.878;13.316;2024-03-29T08:46:46;92898.28;;;13.47;52.61
21588;BME280;10956;48.878;13.316;2024-03-29T08:49:12;92891.16;;;13.21;52.95
21588;BME280;10956;48.878;13.316;2024-03-29T08:51:37;92892.38;;;12.81;52.46
21588;BME280;10956;48.878;13.316;2024-03-29T08:54:03;92903.41;;;12.57;53.99
21588;BME280;10956;48.878;13.316;2024-03-29T08:56:31;92908.47;;;12.36;54.71
21588;BME280;10956;48.878;13.316;2024-03-29T08:58:57;92906.28;;;12.21;54.68
21588;BME280;10956;48.878;13.316;2024-03-29T09:01:26;92915.56;;;12.10;54.20
21588;BME280;10956;48.878;13.316;2024-03-29T09:03:52;92910.41;;;12.05;53.72
21588;BME280;10956;48.878;13.316;2024-03-29T09:06:19;92911.97;;;12.06;54.32
21588;BME280;10956;48.878;13.316;2024-03-29T09:08:45;92912.44;;;12.08;55.22
21588;BME280;10956;48.878;13.316;2024-03-29T09:11:10;92922.53;;;12.06;54.80
21588;BME280;10956;48.878;13.316;2024-03-29T09:13:37;92917.09;;;12.11;55.86
21588;BME280;10956;48.878;13.316;2024-03-29T09:16:03;92912.78;;;12.15;56.10
21588;BME280;10956;48.878;13.316;2024-03-29T09:18:28;92914.81;;;12.18;58.38
21588;BME280;10956;48.878;13.316;2024-03-29T09:20:57;92913.09;;;12.22;57.75
21588;BME280;10956;48.878;13.316;2024-03-29T09:23:25;92905.81;;;12.27;56.43
21588;BME280;10956;48.878;13.316;2024-03-29T09:25:51;92905.38;;;12.34;56.45
21588;BME280;10956;48.878;13.316;2024-03-29T09:28:16;92904.75;;;12.37;54.74
21588;BME280;10956;48.878;13.316;2024-03-29T09:30:42;92916.25;;;12.41;53.96
21588;BME280;10956;48.878;13.316;2024-03-29T09:33:07;92906.03;;;12.48;53.14
21588;BME280;10956;48.878;13.316;2024-03-29T09:35:36;92900.28;;;12.55;54.38
21588;BME280;10956;48.878;13.316;2024-03-29T09:38:02;92917.84;;;12.59;55.11
21588;BME280;10956;48.878;13.316;2024-03-29T09:40:29;92906.66;;;12.63;54.37
21588;BME280;10956;48.878;13.316;2024-03-29T09:42:56;92897.97;;;12.71;53.86
21588;BME280;10956;48.878;13.316;2024-03-29T09:45:31;92903.59;;;12.95;54.82
21588;BME280;10956;48.878;13.316;2024-03-29T09:48:01;92911.06;;;13.10;54.33
21588;BME280;10956;48.878;13.316;2024-03-29T09:50:29;92903.91;;;13.19;53.96
21588;BME280;10956;48.878;13.316;2024-03-29T09:52:56;92904.34;;;13.47;53.45
21588;BME280;10956;48.878;13.316;2024-03-29T09:55:22;92910.03;;;13.75;54.21
21588;BME280;10956;48.878;13.316;2024-03-29T09:57:48;92903.44;;;13.99;54.12
21588;BME280;10956;48.878;13.316;2024-03-29T10:00:14;92903.06;;;14.09;53.72
21588;BME280;10956;48.878;13.316;2024-03-29T10:02:40;92899.75;;;14.20;54.59
21588;BME280;10956;48.878;13.316;2024-03-29T10:05:11;92891.13;;;14.32;54.59
21588;BME280;10956;48.878;13.316;2024-03-29T10:07:45;92889.19;;;14.41;54.57
21588;BME280;10956;48.878;13.316;2024-03-29T10:10:31;92906.06;;;14.66;52.27
21588;BME280;10956;48.878;13.316;2024-03-29T10:12:57;92907.59;;;14.97;53.07
21588;BME280;10956;48.878;13.316;2024-03-29T10:15:23;92896.38;;;15.12;53.13
21588;BME280;10956;48.878;13.316;2024-03-29T10:17:52;92888.59;;;15.28;52.09
21588;BME280;10956;48.878;13.316;2024-03-29T10:20:19;92889.31;;;15.37;50.52
21588;BME280;10956;48.878;13.316;2024-03-29T10:23:07;92885.53;;;15.59;51.19
21588;BME280;10956;48.878;13.316;2024-03-29T10:25:33;92884.38;;;15.80;51.33
21588;BME280;10956;48.878;13.316;2024-03-29T10:28:00;92875.75;;;15.96;50.55
21588;BME280;10956;48.878;13.316;2024-03-29T10:30:29;92880.63;;;16.06;49.82
21588;BME280;10956;48.878;13.316;2024-03-29T10:33:08;92876.22;;;16.22;50.57
21588;BME280;10956;48.878;13.316;2024-03-29T10:35:34;92863.59;;;16.31;50.10
21588;BME280;10956;48.878;13.316;2024-03-29T10:38:03;92866.47;;;16.38;49.82
21588;BME280;10956;48.878;13.316;2024-03-29T10:40:30;92862.47;;;16.44;50.02
21588;BME280;10956;48.878;13.316;2024-03-29T10:43:24;92865.03;;;16.41;49.91
21588;BME280;10956;48.878;13.316;2024-03-29T10:45:50;92867.47;;;16.46;49.61
21588;BME280;10956;48.878;13.316;2024-03-29T10:48:21;92864.00;;;16.58;48.96
21588;BME280;10956;48.878;13.316;2024-03-29T10:50:48;92851.16;;;16.72;48.70
21588;BME280;10956;48.878;13.316;2024-03-29T11:04:09;92855.38;;;17.13;46.07
21588;BME280;10956;48.878;13.316;2024-03-29T11:07:14;92851.53;;;17.26;46.02
21588;BME280;10956;48.878;13.316;2024-03-29T11:16:41;92851.34;;;17.47;46.27
21588;BME280;10956;48.878;13.316;2024-03-29T11:19:38;92853.06;;;17.55;45.37
21588;BME280;10956;48.878;13.316;2024-03-29T11:22:06;92837.09;;;17.55;44.05
21588;BME280;10956;48.878;13.316;2024-03-29T11:24:32;92841.75;;;17.58;44.22
21588;BME280;10956;48.878;13.316;2024-03-29T11:27:09;92848.38;;;17.64;45.05
21588;BME280;10956;48.878;13.316;2024-03-29T11:29:48;92841.28;;;17.68;45.67
21588;BME280;10956;48.878;13.316;2024-03-29T11:32:33;92832.44;;;17.80;45.24
21588;BME280;10956;48.878;13.316;2024-03-29T11:34:59;92829.59;;;17.89;44.25
21588;BME280;10956;48.878;13.316;2024-03-29T11:37:44;92824.00;;;18.10;43.66
21588;BME280;10956;48.878;13.316;2024-03-29T11:40:11;92820.63;;;18.28;43.82
21588;BME280;10956;48.878;13.316;2024-03-29T11:42:44;92810.69;;;18.45;43.20
21588;BME280;10956;48.878;13.316;2024-03-29T11:45:11;92813.53;;;18.52;43.66
21588;BME280;10956;48.878;13.316;2024-03-29T11:47:56;92814.38;;;18.56;43.44
21588;BME280;10956;48.878;13.316;2024-03-29T11:50:25;92805.25;;;18.57;43.19
21588;BME280;10956;48.878;13.316;2024-03-29T11:52:51;92810.16;;;18.55;43.00
21588;BME280;10956;48.878;13.316;2024-03-29T11:55:17;92814.66;;;18.51;42.64
21588;BME280;10956;48.878;13.316;2024-03-29T11:57:43;92810.13;;;18.35;42.83
21588;BME280;10956;48.878;13.316;2024-03-29T12:00:09;92806.19;;;18.29;43.38
21588;BME280;10956;48.878;13.316;2024-03-29T12:02:35;92805.16;;;18.18;43.72
21588;BME280;10956;48.878;13.316;2024-03-29T12:05:04;92812.03;;;18.19;44.22
21588;BME280;10956;48.878;13.316;2024-03-29T12:07:30;92813.59;;;18.20;44.31
21588;BME280;10956;48.878;13.316;2024-03-29T12:09:56;92816.94;;;18.17;44.47
21588;BME280;10956;48.878;13.316;2024-03-29T12:12:22;92811.38;;;18.06;44.94
21588;BME280;10956;48.878;13.316;2024-03-29T12:14:47;92815.22;;;18.09;nan
21588;BME280;10956;48.878;13.316;2024-03-29T12:17:13;92805.94;;;18.19;44.07
21588;BME280;10956;48.878;13.316;2024-03-29T12:19:39;92818.91;;;18.20;44.46
21588;BME280;10956;48.878;13.316;2024-03-29T12:22:08;92826.56;;;18.22;44.95
21588;BME280;10956;48.878;13.316;2024-03-29T12:24:54;92827.09;;;18.27;45.22
21588;BME280;10956;48.878;13.316;2024-03-29T12:31:10;92823.97;;;18.41;44.86
21588;BME280;10956;48.878;13.316;2024-03-29T12:34:05;92825.50;;;18.42;43.64
21588;BME280;10956;48.878;13.316;2024-03-29T12:36:57;92821.28;;;18.41;44.33
21588;BME280;10956;48.878;13.316;2024-03-29T12:39:49;92813.09;;;18.50;44.62
21588;BME280;10956;48.878;13.316;2024-03-29T12:42:35;92817.31;;;18.51;44.29
21588;BME280;10956;48.878;13.316;2024-03-29T12:45:21;92811.75;;;18.40;43.00
21588;BME280;10956;48.878;13.316;2024-03-29T12:48:26;92807.72;;;18.30;43.55
21588;BME280;10956;48.878;13.316;2024-03-29T12:50:52;92809.09;;;18.24;43.68
21588;BME280;10956;48.878;13.316;2024-03-29T12:54:16;92813.34;;;18.10;44.83
21588;BME280;10956;48.878;13.316;2024-03-29T12:57:13;92819.78;;;17.93;44.48
21588;BME280;10956;48.878;13.316;2024-03-29T12:59:45;92814.72;;;17.72;45.80
21588;BME280;10956;48.878;13.316;2024-03-29T13:05:53;92807.69;;;17.36;47.92
21588;BME280;10956;48.878;13.316;2024-03-29T13:08:25;92812.91;;;17.32;48.16
21588;BME280;10956;48.878;13.316;2024-03-29T13:11:17;92803.03;;;17.33;49.13
21588;BME280;10956;48.878;13.316;2024-03-29T13:13:45;92801.69;;;17.39;48.90
21588;BME280;10956;48.878;13.316;2024-03-29T13:16:16;92804.09;;;17.44;48.35
21588;BME280;10956;48.878;13.316;2024-03-29T13:18:42;92803.22;;;17.40;47.63
21588;BME280;10956;48.878;13.316;2024-03-29T13:21:41;92796.16;;;17.32;46.36
21588;BME280;10956;48.878;13.316;2024-03-29T13:24:07;92796.50;;;17.30;46.70